createdAt,value
2018-09-11T00:00:45.040Z,2.50
2018-09-11T00:03:13.450Z,2.13
2018-09-11T00:05:41.626Z,2.10
2018-09-11T00:08:09.722Z,2.20
2018-09-11T00:10:37.849Z,2.50
2018-09-11T00:13:06.064Z,2.50
2018-09-11T00:15:34.224Z,2.27
2018-09-11T00:18:02.413Z,2.40
2018-09-11T00:20:30.540Z,2.53
2018-09-11T00:22:58.652Z,2.33
2018-09-11T00:25:26.779Z,2.60
2018-09-11T00:27:54.900Z,2.40
2018-09-11T00:30:23.030Z,2.47
2018-09-11T00:32:51.148Z,2.07
2018-09-11T00:35:19.270Z,2.27
2018-09-11T00:37:47.416Z,2.20
2018-09-11T00:40:15.716Z,2.07
2018-09-11T00:42:43.895Z,2.77
2018-09-11T00:45:12.024Z,2.33
2018-09-11T00:47:40.119Z,2.33
2018-09-11T00:50:08.300Z,2.40
2018-09-11T00:52:36.370Z,2.57
2018-09-11T00:55:04.615Z,2.70
2018-09-11T00:57:32.695Z,2.50
2018-09-11T01:00:00.817Z,3.33
2018-09-11T01:02:28.909Z,3.20
2018-09-11T01:04:57.012Z,2.70
2018-09-11T01:07:25.130Z,2.70
2018-09-11T01:09:53.267Z,2.80
2018-09-11T01:12:21.415Z,3.23
2018-09-11T01:14:49.615Z,2.90
2018-09-11T01:17:17.692Z,3.30
2018-09-11T01:19:45.863Z,3.10
2018-09-11T01:22:14.024Z,3.43
2018-09-11T01:24:42.140Z,2.90
2018-09-11T01:27:10.254Z,3.30
2018-09-11T01:29:38.356Z,3.13
2018-09-11T01:32:06.540Z,3.20
2018-09-11T01:34:41.255Z,3.13
2018-09-11T01:37:09.421Z,3.17
2018-09-11T01:39:37.567Z,3.13
2018-09-11T01:42:05.749Z,2.90
2018-09-11T01:44:33.843Z,3.30
2018-09-11T01:47:01.984Z,2.93
2018-09-11T01:49:30.084Z,3.43
2018-09-11T01:51:58.257Z,3.00
2018-09-11T01:54:26.378Z,3.00
2018-09-11T01:56:54.504Z,2.67
2018-09-11T01:59:23.503Z,2.70
2018-09-11T02:01:51.595Z,3.13
2018-09-11T02:04:19.744Z,3.30
2018-09-11T02:06:47.900Z,3.20
2018-09-11T02:09:15.997Z,3.07
2018-09-11T02:11:44.114Z,3.20
2018-09-11T02:14:12.234Z,3.10
2018-09-11T02:16:40.375Z,2.77
2018-09-11T02:19:08.451Z,2.83
2018-09-11T02:21:36.576Z,2.90
2018-09-11T02:24:04.682Z,2.63
2018-09-11T02:26:32.856Z,3.10
2018-09-11T02:29:00.990Z,2.80
2018-09-11T02:31:29.090Z,2.53
2018-09-11T02:33:57.205Z,2.60
2018-09-11T02:36:25.312Z,2.10
2018-09-11T02:38:53.451Z,2.87
2018-09-11T02:41:21.614Z,2.37
2018-09-11T02:43:49.763Z,2.77
2018-09-11T02:46:17.886Z,2.80
2018-09-11T02:48:46.061Z,2.77
2018-09-11T02:51:14.176Z,2.47
2018-09-11T02:53:42.303Z,2.47
2018-09-11T02:56:10.430Z,2.37
2018-09-11T02:58:38.550Z,2.50
2018-09-11T03:01:06.683Z,2.60
2018-09-11T03:03:34.825Z,2.90
2018-09-11T03:06:03.155Z,2.73
2018-09-11T03:08:31.276Z,2.60
2018-09-11T03:10:59.371Z,2.73
2018-09-11T03:13:27.500Z,2.77
2018-09-11T03:15:55.589Z,2.00
2018-09-11T03:18:23.716Z,2.50
2018-09-11T03:20:51.812Z,2.13
2018-09-11T03:23:19.912Z,2.53
2018-09-11T03:25:48.060Z,2.33
2018-09-11T03:28:16.217Z,2.60
2018-09-11T03:30:44.334Z,2.33
2018-09-11T03:33:12.504Z,2.20
2018-09-11T03:35:40.630Z,2.63
2018-09-11T03:38:08.772Z,2.40
2018-09-11T03:40:36.927Z,2.27
2018-09-11T03:43:05.076Z,2.23
2018-09-11T03:45:33.212Z,2.47
2018-09-11T03:48:01.331Z,2.10
2018-09-11T03:50:29.466Z,2.00
2018-09-11T03:52:57.615Z,2.37
2018-09-11T03:55:25.724Z,2.13
2018-09-11T03:57:53.871Z,2.87
2018-09-11T04:00:21.973Z,2.17
2018-09-11T04:02:50.109Z,2.30
2018-09-11T04:05:18.253Z,2.83
2018-09-11T04:07:46.358Z,2.23
2018-09-11T04:10:14.456Z,2.40
2018-09-11T04:12:42.555Z,2.40
2018-09-11T04:15:10.659Z,2.10
2018-09-11T04:17:41.102Z,2.40
2018-09-11T04:20:09.236Z,2.70
2018-09-11T04:22:38.396Z,2.47
2018-09-11T04:25:06.530Z,2.23
2018-09-11T04:27:34.868Z,2.30
2018-09-11T04:30:02.955Z,2.13
2018-09-11T04:32:31.073Z,2.23
2018-09-11T04:34:59.208Z,2.20
2018-09-11T04:37:27.368Z,2.60
2018-09-11T04:39:55.459Z,2.17
2018-09-11T04:42:23.634Z,2.30
2018-09-11T04:44:51.748Z,2.57
2018-09-11T04:47:19.872Z,2.53
2018-09-11T04:49:47.995Z,2.10
2018-09-11T04:52:16.111Z,1.80
2018-09-11T04:54:44.391Z,2.07
2018-09-11T04:57:12.512Z,2.57
2018-09-11T04:59:40.618Z,2.57
2018-09-11T05:02:08.728Z,2.40
2018-09-11T05:04:36.875Z,2.80
2018-09-11T05:07:05.168Z,2.43
2018-09-11T05:09:33.277Z,2.73
2018-09-11T05:12:01.438Z,2.67
2018-09-11T05:14:29.496Z,2.13
2018-09-11T05:16:57.635Z,3.00
2018-09-11T05:19:25.748Z,2.90
2018-09-11T05:21:53.881Z,2.50
2018-09-11T05:24:21.974Z,2.30
2018-09-11T05:26:50.106Z,3.07
2018-09-11T05:29:18.272Z,2.80
2018-09-11T05:31:46.348Z,2.50
2018-09-11T05:34:14.467Z,2.63
2018-09-11T05:36:42.556Z,2.90
2018-09-11T05:39:10.968Z,2.57
2018-09-11T05:41:38.987Z,2.23
2018-09-11T05:44:07.329Z,3.10
2018-09-11T05:46:35.579Z,2.37
2018-09-11T05:49:03.970Z,2.67
2018-09-11T05:51:32.108Z,2.77
2018-09-11T05:54:00.248Z,2.53
2018-09-11T05:56:28.363Z,2.50
2018-09-11T05:58:56.470Z,2.70
2018-09-11T06:01:24.568Z,2.57
2018-09-11T06:03:52.700Z,2.57
2018-09-11T06:06:20.798Z,2.70
2018-09-11T06:08:48.968Z,2.43
2018-09-11T06:11:17.068Z,2.37
2018-09-11T06:13:45.203Z,2.50
2018-09-11T06:16:13.346Z,2.63
2018-09-11T06:18:41.533Z,3.00
2018-09-11T06:21:09.696Z,3.07
2018-09-11T06:23:37.823Z,2.60
2018-09-11T06:26:05.929Z,2.97
2018-09-11T06:28:34.084Z,2.67
2018-09-11T06:31:02.183Z,3.00
2018-09-11T06:33:30.336Z,3.10
2018-09-11T06:36:00.508Z,2.63
2018-09-11T06:38:28.799Z,3.17
2018-09-11T06:40:56.921Z,2.87
2018-09-11T06:43:25.356Z,2.63
2018-09-11T06:45:53.540Z,3.40
2018-09-11T06:48:21.734Z,3.10
2018-09-11T06:50:49.891Z,2.60
2018-09-11T06:53:18.028Z,3.10
2018-09-11T06:55:46.260Z,3.10
2018-09-11T06:58:14.398Z,2.90
2018-09-11T07:00:42.678Z,2.60
2018-09-11T07:03:10.731Z,2.90
2018-09-11T07:05:38.854Z,2.80
2018-09-11T07:08:07.028Z,2.77
2018-09-11T07:10:35.158Z,2.93
2018-09-11T07:13:03.271Z,2.97
2018-09-11T07:15:31.411Z,3.07
2018-09-11T07:17:59.626Z,3.03
2018-09-11T07:20:27.827Z,2.80
2018-09-11T07:22:55.891Z,2.90
2018-09-11T07:25:24.047Z,2.77
2018-09-11T07:27:52.420Z,2.90
2018-09-11T07:30:20.573Z,3.30
2018-09-11T07:32:48.740Z,3.70
2018-09-11T07:35:17.135Z,3.20
2018-09-11T07:37:45.459Z,3.37
2018-09-11T07:40:13.583Z,3.10
2018-09-11T07:42:41.722Z,3.20
2018-09-11T07:45:09.831Z,3.00
2018-09-11T07:47:37.927Z,3.10
2018-09-11T07:50:06.357Z,3.20
2018-09-11T07:52:34.493Z,3.07
2018-09-11T07:55:02.620Z,3.40
2018-09-11T07:57:30.824Z,3.20
2018-09-11T07:59:59.046Z,3.07
2018-09-11T08:02:27.175Z,3.10
2018-09-11T08:04:55.390Z,2.77
2018-09-11T08:07:23.516Z,3.37
2018-09-11T08:09:51.634Z,3.60
2018-09-11T08:12:19.764Z,3.07
2018-09-11T08:14:47.884Z,2.87
2018-09-11T08:17:16.054Z,3.00
2018-09-11T08:19:44.201Z,3.63
2018-09-11T08:22:12.319Z,3.13
2018-09-11T08:24:40.452Z,3.20
2018-09-11T08:27:08.589Z,3.30
2018-09-11T08:29:36.728Z,3.63
2018-09-11T08:32:04.860Z,3.43
2018-09-11T08:34:33.055Z,3.00
2018-09-11T08:37:01.195Z,3.47
2018-09-11T08:39:29.287Z,3.70
2018-09-11T08:41:57.413Z,3.30
2018-09-11T08:44:25.517Z,3.10
2018-09-11T08:46:53.643Z,3.00
2018-09-11T08:49:21.773Z,3.40
2018-09-11T08:51:50.123Z,2.97
2018-09-11T08:54:18.268Z,3.03
2018-09-11T08:56:46.400Z,3.00
2018-09-11T08:59:14.528Z,2.83
2018-09-11T09:01:42.639Z,3.27
2018-09-11T09:04:10.763Z,3.00
2018-09-11T09:06:38.908Z,3.10
2018-09-11T09:09:08.783Z,2.83
2018-09-11T09:11:37.144Z,3.27
2018-09-11T09:14:05.337Z,2.73
2018-09-11T09:16:33.477Z,3.20
2018-09-11T09:19:01.607Z,2.60
2018-09-11T09:21:29.717Z,2.73
2018-09-11T09:23:57.852Z,3.33
2018-09-11T09:26:25.993Z,2.90
2018-09-11T09:28:54.114Z,2.63
2018-09-11T09:31:22.353Z,2.97
2018-09-11T09:33:50.467Z,2.90
2018-09-11T09:36:18.538Z,3.00
2018-09-11T09:38:46.755Z,3.17
2018-09-11T09:41:14.876Z,3.20
2018-09-11T09:43:42.996Z,2.97
2018-09-11T09:46:11.116Z,2.97
2018-09-11T09:48:39.226Z,2.93
2018-09-11T09:51:07.336Z,2.90
2018-09-11T09:53:35.428Z,3.00
2018-09-11T09:56:03.520Z,2.40
2018-09-11T09:58:31.646Z,2.27
2018-09-11T10:01:05.065Z,2.97
2018-09-11T10:03:33.181Z,2.70
2018-09-11T10:06:01.312Z,2.20
2018-09-11T10:08:29.431Z,2.67
2018-09-11T10:10:57.570Z,2.67
2018-09-11T10:13:25.696Z,2.70
2018-09-11T10:15:53.804Z,2.73
2018-09-11T10:18:21.926Z,2.10
2018-09-11T10:20:50.047Z,2.97
2018-09-11T10:23:18.169Z,3.10
2018-09-11T10:25:46.304Z,2.90
2018-09-11T10:28:14.416Z,2.30
2018-09-11T10:30:42.531Z,2.57
2018-09-11T10:33:10.622Z,2.63
2018-09-11T10:35:38.752Z,3.23
2018-09-11T10:38:07.024Z,3.20
2018-09-11T10:40:35.145Z,3.20
2018-09-11T10:43:03.257Z,3.07
2018-09-11T10:45:31.369Z,3.23
2018-09-11T10:47:59.523Z,3.47
2018-09-11T10:50:27.687Z,3.80
2018-09-11T10:52:55.814Z,3.77
2018-09-11T10:55:23.960Z,4.23
2018-09-11T10:57:52.048Z,4.70
2018-09-11T11:00:20.195Z,4.23
2018-09-11T11:02:48.355Z,4.40
2018-09-11T11:05:16.464Z,6.70
2018-09-11T11:07:44.588Z,5.10
2018-09-11T11:10:12.739Z,5.50
2018-09-11T11:12:40.844Z,5.67
2018-09-11T11:15:08.936Z,5.20
2018-09-11T11:17:37.063Z,5.73
2018-09-11T11:20:05.254Z,6.07
2018-09-11T11:22:33.401Z,5.70
2018-09-11T11:25:01.504Z,7.13
2018-09-11T11:27:29.631Z,7.33
2018-09-11T11:29:57.760Z,7.73
2018-09-11T11:32:25.859Z,9.30
2018-09-11T11:34:54.144Z,8.83
2018-09-11T11:37:22.375Z,9.13
2018-09-11T11:39:50.417Z,10.00
2018-09-11T11:42:18.607Z,10.10
2018-09-11T11:44:46.648Z,9.70
2018-09-11T11:47:14.724Z,10.23
2018-09-11T11:49:42.852Z,11.00
2018-09-11T11:52:11.007Z,11.13
2018-09-11T11:54:39.164Z,11.80
2018-09-11T11:57:07.236Z,11.40
2018-09-11T11:59:35.334Z,13.00
2018-09-11T12:02:03.539Z,12.63
2018-09-11T12:04:31.584Z,14.43
2018-09-11T12:06:59.699Z,13.90
2018-09-11T12:09:27.795Z,14.93
2018-09-11T12:11:55.944Z,14.70
2018-09-11T12:14:24.066Z,16.10
2018-09-11T12:16:52.263Z,15.57
2018-09-11T12:19:20.319Z,16.00
2018-09-11T12:21:48.412Z,17.50
2018-09-11T12:24:16.508Z,17.20
2018-09-11T12:26:44.685Z,17.83
2018-09-11T12:29:12.758Z,18.97
2018-09-11T12:31:40.891Z,19.60
2018-09-11T12:34:09.079Z,21.00
2018-09-11T12:36:37.182Z,21.03
2018-09-11T12:39:07.168Z,22.60
2018-09-11T12:41:35.266Z,23.70
2018-09-11T12:44:03.439Z,23.47
2018-09-11T12:46:31.981Z,24.93
2018-09-11T12:48:59.788Z,26.10
2018-09-11T12:51:27.972Z,25.10
2018-09-11T12:53:56.055Z,28.17
2018-09-11T12:56:24.207Z,28.70
2018-09-11T12:58:52.317Z,30.17
2018-09-11T13:01:20.437Z,32.10
2018-09-11T13:03:48.585Z,32.90
2018-09-11T13:06:16.752Z,34.97
2018-09-11T13:08:44.852Z,35.83
2018-09-11T13:11:12.974Z,35.30
2018-09-11T13:13:41.215Z,38.07
2018-09-11T13:16:09.636Z,35.90
2018-09-11T13:18:37.730Z,39.30
2018-09-11T13:21:05.916Z,39.50
2018-09-11T13:23:34.000Z,39.87
2018-09-11T13:26:02.127Z,39.00
2018-09-11T13:28:30.294Z,37.93
2018-09-11T13:30:58.425Z,37.10
2018-09-11T13:33:26.576Z,39.60
2018-09-11T13:35:54.681Z,37.80
2018-09-11T13:38:22.828Z,37.70
2018-09-11T13:40:50.937Z,36.90
2018-09-11T13:43:19.072Z,36.10
2018-09-11T13:45:47.180Z,36.53
2018-09-11T13:48:15.751Z,37.87
2018-09-11T13:50:43.887Z,36.90
2018-09-11T13:53:12.023Z,37.27
2018-09-11T13:55:40.136Z,36.13
2018-09-11T13:58:08.255Z,38.67
2018-09-11T14:00:36.352Z,39.77
2018-09-11T14:03:04.503Z,37.17
2018-09-11T14:05:32.724Z,37.40
2018-09-11T14:08:00.931Z,36.53
2018-09-11T14:10:29.040Z,35.20
2018-09-11T14:12:57.183Z,37.33
2018-09-11T14:15:25.297Z,34.17
2018-09-11T14:17:53.416Z,36.03
2018-09-11T14:20:21.532Z,35.00
2018-09-11T14:22:49.957Z,32.30
2018-09-11T14:25:18.056Z,32.47
2018-09-11T14:27:46.212Z,31.20
2018-09-11T14:30:14.378Z,31.20
2018-09-11T14:32:42.518Z,28.50
2018-09-11T14:35:10.628Z,29.90
2018-09-11T14:37:38.742Z,28.83
2018-09-11T14:40:06.916Z,28.17
2018-09-11T14:42:35.113Z,27.83
2018-09-11T14:45:03.326Z,25.60
2018-09-11T14:47:36.824Z,25.43
2018-09-11T14:50:05.032Z,22.40
2018-09-11T14:52:33.232Z,24.10
2018-09-11T14:55:01.351Z,21.90
2018-09-11T14:57:29.537Z,20.33
2018-09-11T14:59:57.593Z,21.37
2018-09-11T15:02:25.705Z,19.73
2018-09-11T15:04:53.836Z,20.00
2018-09-11T15:07:21.953Z,19.00
2018-09-11T15:09:50.088Z,18.10
2018-09-11T15:12:18.221Z,17.53
2018-09-11T15:14:46.400Z,16.30
2018-09-11T15:17:14.856Z,15.00
2018-09-11T15:19:43.037Z,14.70
2018-09-11T15:22:12.388Z,14.37
2018-09-11T15:24:40.489Z,13.77
2018-09-11T15:27:08.622Z,11.60
2018-09-11T15:29:36.943Z,11.60
2018-09-11T15:32:05.084Z,11.50
2018-09-11T15:34:33.313Z,11.77
2018-09-11T15:37:01.476Z,10.70
2018-09-11T15:39:29.856Z,10.60
2018-09-11T15:41:58.295Z,10.33
2018-09-11T15:44:26.952Z,9.80
2018-09-11T15:46:55.371Z,10.47
2018-09-11T15:49:23.574Z,9.90
2018-09-11T15:51:51.785Z,9.20
2018-09-11T15:54:19.891Z,8.97
2018-09-11T15:56:48.067Z,9.37
2018-09-11T15:59:16.192Z,8.80
2018-09-11T16:01:44.309Z,8.57
2018-09-11T16:04:12.431Z,8.10
2018-09-11T16:06:40.522Z,8.40
2018-09-11T16:09:10.424Z,7.97
2018-09-11T16:11:38.595Z,8.90
2018-09-11T16:14:06.910Z,7.20
2018-09-11T16:16:35.358Z,7.77
2018-09-11T16:19:03.525Z,7.60
2018-09-11T16:21:31.689Z,7.30
2018-09-11T16:24:00.204Z,7.00
2018-09-11T16:26:28.344Z,7.10
2018-09-11T16:28:56.468Z,6.87
2018-09-11T16:31:24.592Z,6.57
2018-09-11T16:33:52.773Z,6.43
2018-09-11T16:36:20.941Z,6.10
2018-09-11T16:38:49.175Z,6.43
2018-09-11T16:41:17.292Z,6.50
2018-09-11T16:43:45.407Z,5.70
2018-09-11T16:46:13.549Z,6.13
2018-09-11T16:48:41.688Z,6.07
2018-09-11T16:51:09.812Z,5.90
2018-09-11T16:53:38.026Z,5.23
2018-09-11T16:56:06.131Z,5.40
2018-09-11T16:58:34.199Z,5.60
2018-09-11T17:01:02.403Z,5.87
2018-09-11T17:03:30.550Z,5.60
2018-09-11T17:05:58.691Z,5.47
2018-09-11T17:08:26.792Z,5.13
2018-09-11T17:10:54.973Z,4.80
2018-09-11T17:13:23.104Z,5.20
2018-09-11T17:15:51.368Z,4.90
2018-09-11T17:18:19.467Z,4.67
2018-09-11T17:20:47.665Z,4.60
2018-09-11T17:23:15.792Z,4.83
2018-09-11T17:25:44.013Z,5.17
2018-09-11T17:28:12.365Z,4.67
2018-09-11T17:30:40.463Z,5.20
2018-09-11T17:33:08.558Z,5.27
2018-09-11T17:35:36.664Z,5.00
2018-09-11T17:38:04.794Z,4.90
2018-09-11T17:40:32.911Z,4.07
2018-09-11T17:43:01.145Z,4.77
2018-09-11T17:45:29.330Z,4.60
2018-09-11T17:47:57.432Z,4.60
2018-09-11T17:50:25.528Z,4.10
2018-09-11T17:52:53.668Z,4.67
2018-09-11T17:55:21.871Z,3.90
2018-09-11T17:57:50.138Z,4.20
2018-09-11T18:00:18.249Z,3.87
2018-09-11T18:02:46.439Z,3.90
2018-09-11T18:05:15.169Z,4.97
2018-09-11T18:07:43.260Z,5.90
2018-09-11T18:10:11.356Z,7.33
2018-09-11T18:12:39.478Z,19.10
2018-09-11T18:15:07.575Z,7.07
2018-09-11T18:17:35.676Z,6.77
2018-09-11T18:20:04.031Z,6.17
2018-09-11T18:22:32.104Z,7.80
2018-09-11T18:25:00.197Z,6.50
2018-09-11T18:27:28.373Z,5.80
2018-09-11T18:29:56.762Z,5.70
2018-09-11T18:32:24.972Z,5.73
2018-09-11T18:34:53.263Z,6.53
2018-09-11T18:37:21.521Z,5.90
2018-09-11T18:39:49.583Z,5.60
2018-09-11T18:42:17.729Z,5.83
2018-09-11T18:44:45.874Z,5.80
2018-09-11T18:47:13.977Z,5.50
2018-09-11T18:49:42.099Z,5.00
2018-09-11T18:52:10.251Z,5.50
2018-09-11T18:54:38.383Z,5.70
2018-09-11T18:57:06.539Z,5.10
2018-09-11T18:59:34.705Z,5.10
2018-09-11T19:02:02.840Z,5.53
2018-09-11T19:04:30.941Z,5.50
2018-09-11T19:06:59.068Z,5.30
2018-09-11T19:09:27.260Z,5.57
2018-09-11T19:11:55.395Z,5.83
2018-09-11T19:14:23.568Z,5.70
2018-09-11T19:16:51.682Z,5.57
2018-09-11T19:19:19.849Z,5.73
2018-09-11T19:21:47.990Z,6.10
2018-09-11T19:24:16.163Z,5.07
2018-09-11T19:26:44.342Z,5.30
2018-09-11T19:29:12.427Z,5.10
2018-09-11T19:31:40.613Z,5.50
2018-09-11T19:34:08.793Z,5.70
2018-09-11T19:36:36.926Z,5.00
2018-09-11T19:39:06.537Z,4.93
2018-09-11T19:41:34.683Z,5.00
2018-09-11T19:44:02.904Z,5.20
2018-09-11T19:46:31.046Z,5.30
2018-09-11T19:48:59.251Z,5.90
2018-09-11T19:51:27.398Z,5.17
2018-09-11T19:53:55.508Z,4.70
2018-09-11T19:56:23.621Z,5.57
2018-09-11T19:58:51.770Z,5.57
2018-09-11T20:01:19.812Z,5.40
2018-09-11T20:03:47.962Z,5.20
2018-09-11T20:06:16.172Z,4.57
2018-09-11T20:08:44.289Z,5.20
2018-09-11T20:11:12.524Z,5.00
2018-09-11T20:13:40.663Z,4.60
2018-09-11T20:16:08.913Z,5.20
2018-09-11T20:18:37.092Z,4.47
2018-09-11T20:21:05.179Z,4.13
2018-09-11T20:23:33.287Z,4.07
2018-09-11T20:26:01.383Z,4.20
2018-09-11T20:28:29.628Z,4.27
2018-09-11T20:30:57.763Z,4.37
2018-09-11T20:33:25.880Z,3.83
2018-09-11T20:35:54.002Z,4.60
2018-09-11T20:38:22.194Z,4.10
2018-09-11T20:40:50.300Z,3.80
2018-09-11T20:43:18.446Z,4.27
2018-09-11T20:45:46.542Z,3.60
2018-09-11T20:48:14.700Z,4.27
2018-09-11T20:50:42.789Z,4.30
2018-09-11T20:53:10.911Z,4.13
2018-09-11T20:55:39.008Z,4.20
2018-09-11T20:58:07.199Z,4.23
2018-09-11T21:00:35.283Z,3.67
2018-09-11T21:03:03.390Z,3.83
2018-09-11T21:05:31.475Z,3.70
2018-09-11T21:07:59.612Z,3.90
2018-09-11T21:10:27.724Z,3.30
2018-09-11T21:12:55.880Z,3.50
2018-09-11T21:15:23.966Z,3.70
2018-09-11T21:17:52.104Z,4.07
2018-09-11T21:20:20.272Z,3.50
2018-09-11T21:22:48.382Z,3.53
2018-09-11T21:25:16.507Z,3.30
2018-09-11T21:27:44.603Z,3.77
2018-09-11T21:30:13.507Z,3.97
2018-09-11T21:32:41.601Z,3.97
2018-09-11T21:35:09.693Z,4.07
2018-09-11T21:37:37.807Z,3.70
2018-09-11T21:40:12.480Z,4.00
2018-09-11T21:42:40.569Z,4.17
2018-09-11T21:45:08.815Z,3.60
2018-09-11T21:47:36.920Z,3.97
2018-09-11T21:50:05.120Z,3.67
2018-09-11T21:52:33.206Z,3.40
2018-09-11T21:55:01.315Z,3.50
2018-09-11T21:57:29.416Z,3.23
2018-09-11T21:59:57.571Z,3.73
2018-09-11T22:02:25.628Z,3.40
2018-09-11T22:04:53.724Z,3.53
2018-09-11T22:07:22.096Z,3.37
2018-09-11T22:09:50.220Z,3.00
2018-09-11T22:12:18.309Z,3.10
2018-09-11T22:14:46.412Z,4.10
2018-09-11T22:17:14.508Z,2.80
2018-09-11T22:19:42.603Z,3.90
2018-09-11T22:22:10.692Z,3.23
2018-09-11T22:24:38.827Z,3.23
2018-09-11T22:27:06.912Z,2.90
2018-09-11T22:29:35.082Z,3.03
2018-09-11T22:32:03.171Z,3.50
2018-09-11T22:34:31.279Z,3.57
2018-09-11T22:36:59.449Z,3.80
2018-09-11T22:39:27.507Z,3.43
2018-09-11T22:41:55.649Z,3.60
2018-09-11T22:44:23.779Z,3.33
2018-09-11T22:46:51.909Z,3.33
2018-09-11T22:49:20.024Z,3.67
2018-09-11T22:51:48.107Z,3.67
2018-09-11T22:54:16.207Z,3.50
2018-09-11T22:56:44.296Z,2.73
2018-09-11T22:59:12.407Z,3.83
2018-09-11T23:01:40.496Z,3.77
2018-09-11T23:04:08.635Z,3.53
2018-09-11T23:06:36.782Z,3.37
2018-09-11T23:09:07.227Z,2.87
2018-09-11T23:11:35.330Z,3.17
2018-09-11T23:14:03.410Z,3.50
2018-09-11T23:16:31.524Z,3.60
2018-09-11T23:18:59.611Z,3.50
2018-09-11T23:21:27.715Z,3.37
2018-09-11T23:23:55.861Z,3.40
2018-09-11T23:26:23.968Z,3.33
2018-09-11T23:28:52.168Z,3.67
2018-09-11T23:31:20.264Z,3.30
2018-09-11T23:33:48.372Z,2.90
2018-09-11T23:36:16.478Z,3.30
2018-09-11T23:38:44.588Z,2.87
2018-09-11T23:41:12.708Z,2.70
2018-09-11T23:43:40.827Z,2.70
2018-09-11T23:46:08.934Z,2.60
2018-09-11T23:48:37.051Z,2.60
2018-09-11T23:51:05.173Z,2.50
2018-09-11T23:53:33.262Z,2.50
2018-09-11T23:56:01.377Z,2.40
2018-09-11T23:58:29.609Z,2.60
